createdAt,value
2018-11-13T00:00:16.403Z,8.60
2018-11-13T00:01:16.384Z,9.20
2018-11-13T00:02:16.981Z,8.50
2018-11-13T00:03:16.365Z,8.70
2018-11-13T00:04:16.392Z,5.60
2018-11-13T00:05:16.348Z,3.90
2018-11-13T00:06:16.340Z,7.70
2018-11-13T00:07:16.315Z,7.90
2018-11-13T00:08:16.307Z,8.20
2018-11-13T00:09:16.304Z,5.20
2018-11-13T00:10:37.402Z,8.50
2018-11-13T00:11:16.296Z,11.00
2018-11-13T00:12:16.258Z,14.20
2018-11-13T00:13:16.247Z,6.70
2018-11-13T00:14:16.240Z,5.00
2018-11-13T00:15:16.280Z,9.50
2018-11-13T00:16:16.214Z,7.40
2018-11-13T00:17:16.197Z,7.00
2018-11-13T00:18:16.196Z,7.80
2018-11-13T00:19:16.191Z,4.80
2018-11-13T00:20:16.169Z,5.10
2018-11-13T00:21:16.182Z,3.40
2018-11-13T00:22:16.147Z,3.80
2018-11-13T00:23:25.667Z,4.20
2018-11-13T00:24:26.254Z,6.00
2018-11-13T00:26:28.379Z,5.80
2018-11-13T00:27:38.160Z,4.90
2018-11-13T00:28:39.272Z,4.80
2018-11-13T00:29:28.312Z,6.30
2018-11-13T00:30:28.199Z,4.80
2018-11-13T00:31:28.158Z,8.50
2018-11-13T00:32:28.207Z,4.40
2018-11-13T00:33:28.170Z,6.90
2018-11-13T00:34:28.249Z,4.70
2018-11-13T00:35:28.121Z,6.10
2018-11-13T00:36:28.090Z,6.00
2018-11-13T00:37:28.122Z,6.20
2018-11-13T00:38:28.069Z,6.10
2018-11-13T00:39:28.053Z,4.20
2018-11-13T00:40:28.059Z,5.30
2018-11-13T00:41:37.525Z,7.40
2018-11-13T00:42:28.070Z,5.80
2018-11-13T00:43:28.088Z,8.70
2018-11-13T00:44:28.055Z,8.10
2018-11-13T00:45:28.198Z,4.70
2018-11-13T00:46:27.988Z,4.60
2018-11-13T00:47:27.967Z,5.00
2018-11-13T00:48:28.521Z,4.90
2018-11-13T00:49:27.949Z,4.10
2018-11-13T00:50:37.446Z,3.60
2018-11-13T00:51:28.051Z,5.30
2018-11-13T00:52:27.926Z,5.30
2018-11-13T00:53:28.029Z,4.20
2018-11-13T00:54:27.944Z,6.60
2018-11-13T00:55:27.999Z,4.00
2018-11-13T00:56:37.426Z,6.50
2018-11-13T00:57:27.915Z,5.10
2018-11-13T00:58:27.897Z,5.50
2018-11-13T00:59:27.878Z,3.40
2018-11-13T01:00:36.542Z,4.40
2018-11-13T01:01:27.904Z,3.90
2018-11-13T01:02:27.842Z,4.10
2018-11-13T01:03:27.844Z,3.70
2018-11-13T01:04:27.848Z,8.60
2018-11-13T01:05:27.893Z,5.50
2018-11-13T01:06:27.775Z,3.70
2018-11-13T01:07:27.765Z,4.00
2018-11-13T01:08:27.736Z,4.80
2018-11-13T01:09:27.780Z,5.20
2018-11-13T01:10:27.742Z,4.30
2018-11-13T01:11:27.711Z,6.20
2018-11-13T01:12:27.751Z,4.90
2018-11-13T01:13:36.364Z,6.40
2018-11-13T01:14:27.747Z,7.60
2018-11-13T01:15:27.702Z,4.40
2018-11-13T01:16:27.672Z,3.00
2018-11-13T01:17:27.722Z,3.90
2018-11-13T01:18:27.668Z,4.80
2018-11-13T01:19:27.626Z,3.90
2018-11-13T01:20:27.639Z,4.40
2018-11-13T01:21:27.636Z,4.80
2018-11-13T01:22:27.619Z,6.50
2018-11-13T01:23:27.575Z,6.40
2018-11-13T01:24:27.615Z,4.30
2018-11-13T01:25:38.203Z,4.70
2018-11-13T01:26:37.580Z,4.50
2018-11-13T01:27:27.547Z,2.90
2018-11-13T01:28:27.570Z,4.70
2018-11-13T01:29:27.525Z,5.50
2018-11-13T01:30:27.542Z,2.90
2018-11-13T01:31:27.571Z,3.50
2018-11-13T01:32:37.430Z,9.90
2018-11-13T01:33:38.555Z,6.80
2018-11-13T01:34:27.495Z,4.80
2018-11-13T01:35:38.393Z,4.90
2018-11-13T01:36:27.993Z,9.30
2018-11-13T01:37:27.470Z,5.40
2018-11-13T01:38:27.518Z,6.30
2018-11-13T01:39:27.394Z,5.40
2018-11-13T01:40:27.436Z,4.80
2018-11-13T01:41:38.762Z,4.40
2018-11-13T01:42:27.360Z,7.70
2018-11-13T01:43:27.406Z,4.30
2018-11-13T01:44:27.367Z,3.00
2018-11-13T01:45:27.360Z,4.40
2018-11-13T01:46:27.303Z,6.10
2018-11-13T01:47:27.328Z,5.70
2018-11-13T01:48:27.279Z,3.00
2018-11-13T01:49:27.343Z,4.30
2018-11-13T01:50:39.512Z,4.30
2018-11-13T01:51:27.298Z,3.50
2018-11-13T01:52:27.241Z,5.30
2018-11-13T01:53:27.241Z,3.50
2018-11-13T01:54:27.279Z,3.20
2018-11-13T01:55:27.260Z,4.80
2018-11-13T01:56:27.233Z,4.90
2018-11-13T01:57:27.565Z,4.00
2018-11-13T01:58:27.159Z,5.60
2018-11-13T01:59:27.168Z,4.00
2018-11-13T02:00:27.158Z,3.10
2018-11-13T02:01:27.124Z,2.50
2018-11-13T02:02:27.134Z,4.90
2018-11-13T02:03:27.101Z,3.80
2018-11-13T02:04:27.085Z,5.60
2018-11-13T02:05:27.086Z,5.90
2018-11-13T02:06:27.082Z,5.70
2018-11-13T02:07:27.081Z,3.80
2018-11-13T02:08:27.043Z,3.10
2018-11-13T02:09:27.032Z,3.20
2018-11-13T02:10:27.023Z,3.10
2018-11-13T02:11:27.032Z,7.50
2018-11-13T02:12:27.004Z,2.60
2018-11-13T02:13:26.997Z,5.40
2018-11-13T02:14:26.992Z,2.90
2018-11-13T02:15:26.967Z,3.00
2018-11-13T02:16:26.948Z,4.20
2018-11-13T02:17:26.952Z,5.20
2018-11-13T02:18:26.930Z,5.20
2018-11-13T02:19:26.944Z,3.50
2018-11-13T02:20:26.927Z,2.60
2018-11-13T02:21:27.504Z,2.90
2018-11-13T02:22:26.888Z,5.00
2018-11-13T02:23:26.877Z,2.40
2018-11-13T02:24:26.880Z,3.90
2018-11-13T02:25:27.508Z,5.50
2018-11-13T02:26:26.852Z,5.20
2018-11-13T02:27:26.825Z,5.00
2018-11-13T02:28:26.823Z,3.10
2018-11-13T02:29:26.824Z,3.00
2018-11-13T02:30:26.794Z,5.50
2018-11-13T02:31:26.804Z,3.70
2018-11-13T02:32:26.773Z,5.80
2018-11-13T02:33:26.762Z,3.30
2018-11-13T02:34:26.748Z,2.20
2018-11-13T02:35:26.849Z,6.00
2018-11-13T02:36:26.730Z,4.40
2018-11-13T02:37:26.721Z,3.80
2018-11-13T02:38:26.705Z,3.00
2018-11-13T02:39:26.699Z,4.70
2018-11-13T02:40:26.725Z,9.60
2018-11-13T02:41:26.688Z,4.40
2018-11-13T02:42:26.695Z,3.20
2018-11-13T02:43:26.648Z,2.70
2018-11-13T02:44:26.640Z,3.80
2018-11-13T02:45:26.627Z,2.70
2018-11-13T02:46:26.607Z,3.20
2018-11-13T02:47:37.273Z,5.60
2018-11-13T02:48:26.621Z,6.60
2018-11-13T02:49:26.600Z,4.30
2018-11-13T02:50:26.623Z,4.50
2018-11-13T02:51:26.613Z,3.10
2018-11-13T02:52:26.680Z,7.80
2018-11-13T02:53:26.620Z,3.80
2018-11-13T02:54:26.522Z,7.50
2018-11-13T02:55:26.527Z,3.90
2018-11-13T02:56:36.339Z,5.00
2018-11-13T02:57:26.546Z,4.00
2018-11-13T02:58:26.533Z,2.80
2018-11-13T02:59:26.481Z,7.70
2018-11-13T03:00:26.546Z,2.50
2018-11-13T03:01:26.484Z,6.90
2018-11-13T03:02:26.569Z,3.10
2018-11-13T03:03:26.417Z,6.30
2018-11-13T03:04:26.549Z,4.90
2018-11-13T03:05:26.399Z,3.50
2018-11-13T03:06:26.383Z,5.00
2018-11-13T03:07:26.381Z,2.60
2018-11-13T03:08:36.869Z,5.50
2018-11-13T03:09:26.415Z,3.80
2018-11-13T03:10:27.298Z,2.60
2018-11-13T03:11:26.328Z,6.60
2018-11-13T03:12:26.347Z,2.30
2018-11-13T03:13:26.368Z,3.70
2018-11-13T03:14:26.473Z,5.50
2018-11-13T03:15:26.301Z,3.10
2018-11-13T03:16:26.273Z,4.20
2018-11-13T03:17:26.282Z,3.70
2018-11-13T03:18:26.253Z,4.90
2018-11-13T03:19:26.240Z,2.20
2018-11-13T03:20:26.254Z,3.70
2018-11-13T03:21:26.215Z,3.90
2018-11-13T03:22:26.202Z,3.20
2018-11-13T03:23:26.197Z,3.00
2018-11-13T03:24:26.182Z,2.60
2018-11-13T03:25:26.209Z,3.60
2018-11-13T03:26:26.157Z,2.60
2018-11-13T03:27:26.148Z,3.80
2018-11-13T03:28:26.131Z,2.90
2018-11-13T03:29:38.366Z,3.00
2018-11-13T03:30:26.718Z,4.50
2018-11-13T03:31:26.830Z,3.30
2018-11-13T03:32:34.782Z,4.50
2018-11-13T03:33:26.119Z,5.00
2018-11-13T03:34:26.166Z,2.70
2018-11-13T03:35:26.124Z,2.80
2018-11-13T03:36:26.086Z,3.60
2018-11-13T03:37:26.067Z,3.10
2018-11-13T03:38:26.069Z,4.30
2018-11-13T03:39:26.050Z,6.60
2018-11-13T03:40:26.017Z,6.10
2018-11-13T03:41:26.015Z,4.20
2018-11-13T03:42:26.026Z,5.70
2018-11-13T03:43:37.107Z,5.30
2018-11-13T03:44:25.988Z,4.80
2018-11-13T03:45:27.009Z,5.90
2018-11-13T03:46:25.974Z,5.70
2018-11-13T03:47:27.015Z,9.90
2018-11-13T03:48:25.963Z,6.50
2018-11-13T03:49:25.914Z,7.50
2018-11-13T03:50:25.924Z,7.80
2018-11-13T03:51:25.997Z,6.40
2018-11-13T03:52:25.916Z,5.50
2018-11-13T03:53:26.016Z,7.80
2018-11-13T03:54:25.839Z,9.50
2018-11-13T03:55:25.843Z,6.90
2018-11-13T03:56:34.516Z,5.70
2018-11-13T03:57:25.844Z,10.30
2018-11-13T03:58:35.917Z,8.60
2018-11-13T03:59:34.506Z,5.70
2018-11-13T04:00:38.575Z,4.60
2018-11-13T04:02:40.781Z,4.90
2018-11-13T04:03:52.336Z,5.70
2018-11-13T04:04:48.845Z,8.20
2018-11-13T04:05:40.247Z,8.50
2018-11-13T04:06:52.338Z,8.20
2018-11-13T04:07:40.157Z,7.30
2018-11-13T04:16:13.082Z,6.90
2018-11-13T04:16:57.252Z,7.50
2018-11-13T04:17:55.899Z,6.30
2018-11-13T04:18:55.783Z,7.60
2018-11-13T04:19:55.740Z,12.00
2018-11-13T04:20:55.764Z,7.20
2018-11-13T04:21:55.720Z,7.80
2018-11-13T04:22:55.711Z,6.80
2018-11-13T04:23:55.719Z,6.50
2018-11-13T04:24:55.689Z,8.60
2018-11-13T04:26:05.214Z,4.00
2018-11-13T04:27:05.201Z,4.50
2018-11-13T04:27:55.700Z,7.10
2018-11-13T04:28:55.653Z,5.70
2018-11-13T04:29:55.660Z,4.00
2018-11-13T04:30:55.712Z,6.10
2018-11-13T04:31:55.641Z,7.60
2018-11-13T04:32:55.611Z,4.60
2018-11-13T04:33:55.647Z,4.60
2018-11-13T04:35:06.860Z,4.80
2018-11-13T04:37:08.596Z,6.30
2018-11-13T04:38:18.311Z,8.20
2018-11-13T04:43:21.749Z,10.90
2018-11-13T04:43:50.503Z,10.50
2018-11-13T04:44:47.744Z,5.60
2018-11-13T04:50:39.185Z,7.50
2018-11-13T04:52:34.452Z,3.40
2018-11-13T04:53:42.914Z,4.30
2018-11-13T04:54:34.349Z,7.90
2018-11-13T04:55:43.774Z,9.00
2018-11-13T04:56:45.217Z,5.30
2018-11-13T04:58:47.957Z,4.20
2018-11-13T04:59:58.837Z,4.10
2018-11-13T05:00:47.827Z,4.90
2018-11-13T05:01:47.780Z,4.40
2018-11-13T05:03:01.700Z,5.60
2018-11-13T05:03:47.884Z,12.10
2018-11-13T05:04:57.315Z,8.40
2018-11-13T05:05:47.820Z,6.10
2018-11-13T05:06:58.328Z,9.10
2018-11-13T05:07:47.766Z,4.00
2018-11-13T05:08:57.173Z,4.70
2018-11-13T05:09:48.362Z,4.00
2018-11-13T05:11:24.516Z,4.90
2018-11-13T05:11:47.710Z,5.10
2018-11-13T05:13:01.701Z,5.00
2018-11-13T05:13:56.308Z,4.10
2018-11-13T05:14:58.770Z,4.30
2018-11-13T05:15:47.668Z,6.50
2018-11-13T05:16:57.172Z,5.30
2018-11-13T05:17:47.613Z,4.30
2018-11-13T05:18:47.604Z,4.40
2018-11-13T05:20:00.240Z,3.70
2018-11-13T05:21:58.954Z,2.30
2018-11-13T05:25:44.121Z,1.90
2018-11-13T05:26:44.798Z,2.70
2018-11-13T05:27:36.148Z,3.10
2018-11-13T05:28:46.762Z,2.00
2018-11-13T05:29:44.747Z,2.50
2018-11-13T05:31:48.484Z,1.80
2018-11-13T05:32:48.424Z,2.30
2018-11-13T05:33:58.455Z,2.70
2018-11-13T05:34:48.342Z,2.00
2018-11-13T05:35:56.989Z,1.60
2018-11-13T05:36:48.329Z,1.80
2018-11-13T05:37:56.986Z,2.00
2018-11-13T05:39:00.271Z,1.70
2018-11-13T05:39:48.261Z,1.70
2018-11-13T05:41:59.634Z,1.80
2018-11-13T05:42:59.605Z,1.60
2018-11-13T05:43:59.481Z,2.10
2018-11-13T05:44:59.471Z,1.70
2018-11-13T05:45:59.574Z,1.60
2018-11-13T05:46:59.462Z,1.80
2018-11-13T05:48:00.203Z,1.50
2018-11-13T05:48:59.482Z,2.20
2018-11-13T05:49:59.422Z,1.90
2018-11-13T05:51:08.843Z,2.10
2018-11-13T05:51:59.378Z,1.90
2018-11-13T05:52:59.389Z,1.90
2018-11-13T05:53:59.378Z,1.80
2018-11-13T05:54:59.367Z,1.90
2018-11-13T05:56:10.514Z,1.80
2018-11-13T05:56:59.383Z,1.80
2018-11-13T05:57:59.302Z,1.70
2018-11-13T05:58:59.379Z,2.00
2018-11-13T05:59:59.395Z,1.80
2018-11-13T06:00:59.298Z,1.80
2018-11-13T06:01:59.259Z,2.10
2018-11-13T06:02:59.257Z,2.10
2018-11-13T06:03:59.256Z,2.00
2018-11-13T06:05:08.817Z,2.20
2018-11-13T06:05:59.227Z,2.00
2018-11-13T06:07:07.892Z,2.20
2018-11-13T06:07:59.200Z,1.90
2018-11-13T06:09:07.825Z,1.90
2018-11-13T06:10:10.091Z,1.90
2018-11-13T06:10:59.220Z,2.20
2018-11-13T06:11:59.177Z,1.90
2018-11-13T06:12:59.260Z,2.20
2018-11-13T06:13:59.198Z,2.40
2018-11-13T06:14:59.106Z,2.20
2018-11-13T06:15:59.098Z,2.60
2018-11-13T06:16:59.080Z,2.40
2018-11-13T06:17:59.118Z,2.50
2018-11-13T06:18:59.053Z,2.60
2018-11-13T06:19:59.048Z,1.90
2018-11-13T06:20:59.041Z,2.60
2018-11-13T06:21:59.018Z,2.30
2018-11-13T06:22:59.915Z,2.20
2018-11-13T06:24:09.722Z,2.00
2018-11-13T06:24:59.012Z,1.70
2018-11-13T06:25:59.006Z,2.10
2018-11-13T06:26:58.988Z,2.20
2018-11-13T06:28:10.050Z,1.70
2018-11-13T06:28:58.958Z,2.10
2018-11-13T06:29:58.935Z,1.90
2018-11-13T06:30:59.513Z,1.80
2018-11-13T06:32:08.732Z,1.90
2018-11-13T06:33:09.778Z,1.90
2018-11-13T06:33:58.885Z,2.10
2018-11-13T06:34:58.919Z,1.70
2018-11-13T06:36:09.870Z,2.20
2018-11-13T06:37:08.393Z,3.10
2018-11-13T06:37:58.936Z,4.30
2018-11-13T06:38:58.941Z,1.80
2018-11-13T06:39:58.887Z,3.60
2018-11-13T06:41:09.604Z,2.40
2018-11-13T06:42:08.745Z,1.90
2018-11-13T06:42:58.851Z,2.80
2018-11-13T06:43:58.772Z,2.10
2018-11-13T06:44:58.823Z,1.40
2018-11-13T06:45:58.782Z,1.90
2018-11-13T06:46:58.882Z,2.00
2018-11-13T06:47:58.744Z,3.80
2018-11-13T06:48:59.254Z,9.50
2018-11-13T06:49:58.710Z,8.10
2018-11-13T06:50:58.681Z,2.20
2018-11-13T06:52:01.786Z,2.00
2018-11-13T06:52:59.659Z,1.80
2018-11-13T06:54:07.364Z,1.90
2018-11-13T06:54:58.698Z,2.10
2018-11-13T06:55:59.245Z,1.80
2018-11-13T06:56:58.693Z,1.80
2018-11-13T06:57:58.617Z,2.20
2018-11-13T06:58:58.615Z,1.70
2018-11-13T06:59:58.674Z,2.20
2018-11-13T07:01:00.801Z,1.60
2018-11-13T07:01:58.628Z,1.90
2018-11-13T07:02:58.549Z,1.90
2018-11-13T07:03:58.560Z,1.90
2018-11-13T07:04:58.568Z,1.80
2018-11-13T07:05:58.536Z,1.50
2018-11-13T07:06:58.530Z,1.40
2018-11-13T07:07:58.494Z,5.10
2018-11-13T07:09:08.073Z,11.50
2018-11-13T07:09:58.529Z,8.80
2018-11-13T07:10:58.547Z,3.90
2018-11-13T07:11:58.490Z,3.90
2018-11-13T07:12:58.526Z,3.10
2018-11-13T07:13:58.554Z,2.90
2018-11-13T07:14:58.429Z,2.10
2018-11-13T07:15:58.423Z,2.40
2018-11-13T07:16:58.406Z,1.90
2018-11-13T07:17:58.409Z,2.90
2018-11-13T07:18:58.376Z,3.80
2018-11-13T07:19:58.379Z,1.60
2018-11-13T07:20:58.372Z,2.00
2018-11-13T07:21:58.344Z,1.60
2018-11-13T07:22:58.335Z,2.10
2018-11-13T07:23:59.301Z,1.40
2018-11-13T07:24:58.325Z,1.50
2018-11-13T07:26:07.071Z,1.60
2018-11-13T07:26:59.266Z,1.50
2018-11-13T07:27:58.292Z,1.50
2018-11-13T07:28:58.340Z,1.40
2018-11-13T07:29:58.332Z,1.40
2018-11-13T07:30:58.376Z,1.50
2018-11-13T07:31:59.219Z,1.50
2018-11-13T07:32:58.261Z,1.50
2018-11-13T07:33:58.218Z,1.50
2018-11-13T07:34:58.201Z,1.50
2018-11-13T07:35:58.274Z,1.70
2018-11-13T07:36:58.181Z,1.60
2018-11-13T07:37:58.180Z,1.50
2018-11-13T07:38:58.158Z,1.60
2018-11-13T07:39:58.143Z,1.60
2018-11-13T07:40:58.179Z,1.50
2018-11-13T07:41:58.112Z,1.40
2018-11-13T07:42:58.116Z,1.70
2018-11-13T07:43:58.092Z,1.70
2018-11-13T07:44:58.085Z,1.60
2018-11-13T07:45:58.068Z,1.60
2018-11-13T07:46:58.222Z,1.80
2018-11-13T07:47:58.123Z,1.70
2018-11-13T07:48:58.047Z,1.50
2018-11-13T07:49:58.019Z,1.70
2018-11-13T07:50:58.068Z,1.50
2018-11-13T07:51:57.998Z,1.80
2018-11-13T07:52:58.044Z,1.60
2018-11-13T07:53:58.220Z,1.70
2018-11-13T07:54:57.969Z,1.90
2018-11-13T07:55:57.950Z,1.80
2018-11-13T07:56:57.945Z,1.80
2018-11-13T07:57:57.934Z,1.70
2018-11-13T07:58:57.945Z,1.90
2018-11-13T07:59:57.923Z,2.30
2018-11-13T08:00:58.770Z,2.30
2018-11-13T08:01:57.892Z,2.50
2018-11-13T08:02:57.947Z,2.60
2018-11-13T08:03:57.867Z,2.80
2018-11-13T08:04:57.864Z,2.40
2018-11-13T08:05:57.864Z,2.60
2018-11-13T08:06:57.829Z,2.60
2018-11-13T08:07:57.814Z,2.60
2018-11-13T08:08:57.860Z,2.30
2018-11-13T08:09:57.877Z,2.50
2018-11-13T08:10:57.780Z,2.30
2018-11-13T08:11:57.783Z,2.40
2018-11-13T08:12:57.855Z,2.60
2018-11-13T08:13:57.743Z,2.80
2018-11-13T08:14:57.735Z,2.60
2018-11-13T08:15:57.744Z,3.20
2018-11-13T08:16:57.717Z,3.20
2018-11-13T08:17:57.779Z,3.10
2018-11-13T08:18:57.711Z,3.00
2018-11-13T08:19:57.674Z,2.80
2018-11-13T08:20:57.724Z,2.60
2018-11-13T08:21:57.673Z,2.50
2018-11-13T08:22:57.643Z,2.60
2018-11-13T08:23:57.649Z,2.60
2018-11-13T08:24:57.613Z,2.60
2018-11-13T08:26:18.736Z,2.70
2018-11-13T08:26:57.653Z,2.40
2018-11-13T08:27:57.627Z,2.70
2018-11-13T08:28:57.689Z,2.80
2018-11-13T08:29:57.590Z,2.80
2018-11-13T08:30:57.557Z,2.70
2018-11-13T08:31:57.577Z,2.80
2018-11-13T08:32:57.524Z,3.30
2018-11-13T08:33:57.517Z,3.30
2018-11-13T08:34:57.533Z,2.90
2018-11-13T08:35:57.501Z,3.00
2018-11-13T08:36:57.488Z,3.40
2018-11-13T08:37:57.483Z,3.20
2018-11-13T08:38:57.762Z,3.00
2018-11-13T08:39:57.443Z,3.20
2018-11-13T08:40:57.476Z,3.20
2018-11-13T08:41:57.488Z,3.70
2018-11-13T08:42:57.419Z,3.50
2018-11-13T08:43:57.433Z,3.70
2018-11-13T08:44:58.261Z,3.30
2018-11-13T08:45:57.376Z,3.60
2018-11-13T08:46:57.369Z,3.60
2018-11-13T08:47:57.386Z,3.50
2018-11-13T08:48:57.344Z,3.30
2018-11-13T08:49:57.335Z,3.60
2018-11-13T08:50:57.353Z,5.40
2018-11-13T08:51:57.310Z,4.30
2018-11-13T08:52:57.309Z,5.50
2018-11-13T08:53:57.292Z,9.00
2018-11-13T08:54:57.271Z,8.40
2018-11-13T08:55:57.268Z,5.70
2018-11-13T08:56:57.255Z,4.80
2018-11-13T08:57:57.261Z,5.10
2018-11-13T08:58:57.361Z,4.40
2018-11-13T08:59:57.233Z,4.60
2018-11-13T09:00:57.202Z,4.90
2018-11-13T09:01:57.196Z,4.90
2018-11-13T09:02:57.184Z,4.60
2018-11-13T09:03:57.840Z,4.50
2018-11-13T09:04:57.178Z,4.50
2018-11-13T09:05:57.161Z,4.30
2018-11-13T09:06:57.137Z,4.10
2018-11-13T09:07:57.125Z,4.40
2018-11-13T09:08:57.108Z,5.10
2018-11-13T09:09:57.104Z,5.70
2018-11-13T09:10:57.086Z,4.90
2018-11-13T09:11:57.292Z,4.90
2018-11-13T09:12:57.770Z,4.70
2018-11-13T09:13:57.065Z,4.90
2018-11-13T09:14:57.051Z,4.50
2018-11-13T09:15:57.031Z,4.30
2018-11-13T09:16:57.019Z,4.10
2018-11-13T09:17:57.114Z,4.10
2018-11-13T09:18:57.064Z,4.40
2018-11-13T09:19:57.015Z,4.60
2018-11-13T09:20:56.976Z,4.10
2018-11-13T09:21:56.960Z,3.70
2018-11-13T09:22:56.953Z,3.80
2018-11-13T09:23:56.953Z,4.60
2018-11-13T09:24:56.936Z,3.90
2018-11-13T09:25:56.938Z,3.80
2018-11-13T09:26:56.911Z,4.20
2018-11-13T09:27:56.895Z,3.90
2018-11-13T09:29:08.795Z,3.80
2018-11-13T09:29:56.991Z,3.90
2018-11-13T09:30:57.272Z,4.30
2018-11-13T09:31:57.026Z,4.10
2018-11-13T09:32:57.812Z,4.30
2018-11-13T09:33:56.849Z,3.90
2018-11-13T09:34:56.849Z,3.80
2018-11-13T09:35:56.827Z,5.40
2018-11-13T09:36:56.868Z,4.90
2018-11-13T09:37:56.818Z,3.50
2018-11-13T09:38:56.844Z,3.40
2018-11-13T09:39:56.831Z,3.80
2018-11-13T09:40:56.834Z,3.10
2018-11-13T09:41:56.800Z,2.90
2018-11-13T09:42:56.785Z,3.20
2018-11-13T09:43:56.728Z,4.00
2018-11-13T09:44:56.828Z,4.10
2018-11-13T09:45:56.839Z,3.10
2018-11-13T09:46:56.790Z,2.60
2018-11-13T09:47:56.703Z,2.80
2018-11-13T09:48:56.712Z,2.80
2018-11-13T09:49:56.700Z,7.60
2018-11-13T09:50:56.688Z,3.50
2018-11-13T09:51:56.636Z,3.30
2018-11-13T09:52:56.691Z,3.00
2018-11-13T09:53:56.628Z,3.30
2018-11-13T09:54:56.720Z,3.40
2018-11-13T09:55:56.605Z,3.70
2018-11-13T09:56:56.585Z,3.70
2018-11-13T09:57:56.615Z,3.80
2018-11-13T09:58:57.329Z,4.90
2018-11-13T09:59:58.349Z,5.10
2018-11-13T10:00:56.843Z,4.10
2018-11-13T10:01:57.005Z,3.20
2018-11-13T10:02:58.157Z,3.20
2018-11-13T10:03:57.228Z,4.00
2018-11-13T10:04:57.219Z,4.70
2018-11-13T10:05:56.532Z,4.30
2018-11-13T10:06:56.553Z,3.10
2018-11-13T10:07:56.443Z,6.20
2018-11-13T10:08:56.488Z,3.90
2018-11-13T10:09:56.428Z,3.50
2018-11-13T10:10:56.412Z,3.80
2018-11-13T10:11:56.401Z,3.70
2018-11-13T10:12:56.383Z,6.60
2018-11-13T10:14:07.093Z,6.90
2018-11-13T10:14:56.443Z,8.70
2018-11-13T10:15:56.420Z,4.00
2018-11-13T10:17:06.498Z,5.20
2018-11-13T10:17:56.643Z,14.20
2018-11-13T10:18:56.390Z,6.60
2018-11-13T10:19:56.393Z,14.70
2018-11-13T10:20:56.853Z,8.10
2018-11-13T10:21:56.337Z,29.10
2018-11-13T10:22:56.274Z,35.00
2018-11-13T10:23:56.273Z,15.10
2018-11-13T10:24:56.275Z,12.80
2018-11-13T10:25:56.261Z,11.40
2018-11-13T10:26:56.276Z,7.80
2018-11-13T10:27:56.266Z,18.30
2018-11-13T10:28:56.208Z,14.50
2018-11-13T10:29:56.238Z,29.50
2018-11-13T10:30:56.208Z,17.90
2018-11-13T10:31:56.180Z,8.00
2018-11-13T10:32:56.171Z,10.20
2018-11-13T10:33:56.154Z,4.50
2018-11-13T10:34:56.144Z,3.30
2018-11-13T10:35:56.126Z,3.60
2018-11-13T10:36:56.138Z,11.30
2018-11-13T10:37:56.107Z,3.00
2018-11-13T10:38:56.119Z,3.30
2018-11-13T10:39:56.132Z,3.50
2018-11-13T10:40:56.162Z,11.80
2018-11-13T10:41:56.086Z,6.70
2018-11-13T10:42:56.152Z,3.60
2018-11-13T10:43:56.031Z,6.10
2018-11-13T10:44:56.052Z,8.10
2018-11-13T10:45:56.007Z,4.10
2018-11-13T10:46:55.997Z,3.00
2018-11-13T10:47:56.011Z,2.80
2018-11-13T10:48:56.006Z,3.20
2018-11-13T10:49:55.967Z,3.00
2018-11-13T10:50:56.029Z,10.50
2018-11-13T10:51:55.962Z,2.80
2018-11-13T10:54:09.339Z,3.50
2018-11-13T10:55:09.324Z,3.80
2018-11-13T10:56:09.229Z,3.20
2018-11-13T10:57:20.860Z,2.40
2018-11-13T10:58:09.230Z,2.70
2018-11-13T10:59:18.698Z,2.30
2018-11-13T11:00:09.252Z,3.00
2018-11-13T11:01:09.211Z,2.60
2018-11-13T11:02:09.264Z,2.30
2018-11-13T11:03:09.287Z,3.20
2018-11-13T11:04:09.151Z,3.40
2018-11-13T11:05:09.093Z,2.90
2018-11-13T11:06:09.079Z,2.80
2018-11-13T11:07:09.119Z,4.30
2018-11-13T11:08:09.081Z,3.20
2018-11-13T11:09:20.009Z,4.90
2018-11-13T11:10:09.060Z,3.00
2018-11-13T11:11:09.051Z,2.90
2018-11-13T11:12:09.201Z,8.20
2018-11-13T11:13:09.135Z,6.40
2018-11-13T11:14:09.031Z,11.30
2018-11-13T11:15:09.011Z,11.30
2018-11-13T11:16:09.932Z,7.40
2018-11-13T11:17:09.521Z,11.00
2018-11-13T11:18:18.532Z,4.30
2018-11-13T11:19:09.083Z,3.50
2018-11-13T11:20:08.987Z,3.60
2018-11-13T11:21:08.993Z,2.90
2018-11-13T11:22:08.946Z,3.10
2018-11-13T11:23:08.971Z,3.00
2018-11-13T11:24:09.002Z,3.20
2018-11-13T11:25:08.912Z,2.60
2018-11-13T11:26:18.929Z,3.30
2018-11-13T11:27:08.889Z,8.40
2018-11-13T11:28:08.933Z,21.40
2018-11-13T11:29:08.892Z,4.20
2018-11-13T11:30:08.892Z,4.10
2018-11-13T11:31:08.925Z,5.50
2018-11-13T11:32:08.810Z,3.30
2018-11-13T11:33:19.671Z,3.90
2018-11-13T11:35:23.269Z,2.80
2018-11-13T11:36:23.267Z,2.80
2018-11-13T11:37:23.219Z,7.80
2018-11-13T11:38:33.961Z,13.70
2018-11-13T11:39:32.646Z,15.90
2018-11-13T11:40:23.191Z,50.20
2018-11-13T11:42:34.458Z,23.00
2018-11-13T11:43:34.431Z,29.60
2018-11-13T11:44:34.438Z,51.70
2018-11-13T11:45:34.411Z,5.30
2018-11-13T11:46:45.265Z,11.40
2018-11-13T11:48:46.797Z,1.90
2018-11-13T11:49:46.686Z,3.20
2018-11-13T11:50:55.305Z,3.20
2018-11-13T11:51:46.630Z,3.10
2018-11-13T11:52:57.254Z,4.30
2018-11-13T11:53:46.649Z,3.10
2018-11-13T11:54:46.561Z,2.80
2018-11-13T11:55:46.582Z,4.60
2018-11-13T11:56:46.576Z,2.70
2018-11-13T11:57:46.664Z,2.90
2018-11-13T11:58:46.536Z,3.00
2018-11-13T11:59:59.003Z,5.20
2018-11-13T12:00:46.717Z,2.60
2018-11-13T12:01:46.518Z,2.70
2018-11-13T12:02:46.584Z,2.40
2018-11-13T12:03:46.528Z,2.50
2018-11-13T12:04:46.594Z,3.20
2018-11-13T12:05:46.453Z,2.60
2018-11-13T12:06:46.406Z,2.50
2018-11-13T12:07:46.413Z,2.50
2018-11-13T12:09:04.046Z,3.50
2018-11-13T12:09:47.861Z,2.80
2018-11-13T12:10:46.400Z,3.00
2018-11-13T12:11:46.374Z,3.90
2018-11-13T12:12:46.395Z,6.00
2018-11-13T12:13:46.379Z,3.30
2018-11-13T12:14:46.469Z,5.40
2018-11-13T12:15:46.333Z,2.70
2018-11-13T12:16:46.296Z,3.20
2018-11-13T12:17:46.298Z,3.10
2018-11-13T12:18:46.320Z,3.50
2018-11-13T12:19:46.262Z,3.10
2018-11-13T12:20:46.275Z,2.90
2018-11-13T12:21:55.796Z,3.30
2018-11-13T12:22:46.306Z,3.40
2018-11-13T12:23:46.267Z,3.20
2018-11-13T12:24:56.126Z,4.10
2018-11-13T12:25:46.309Z,3.20
2018-11-13T12:26:54.979Z,3.50
2018-11-13T12:27:55.835Z,2.80
2018-11-13T12:28:46.185Z,3.20
2018-11-13T12:29:56.038Z,3.10
2018-11-13T12:30:58.618Z,3.00
2018-11-13T12:31:46.201Z,2.80
2018-11-13T12:32:46.198Z,3.20
2018-11-13T12:33:46.158Z,3.30
2018-11-13T12:34:46.230Z,3.40
2018-11-13T12:35:55.643Z,3.60
2018-11-13T12:36:54.741Z,4.00
2018-11-13T12:37:46.082Z,3.80
2018-11-13T12:38:55.633Z,4.20
2018-11-13T12:39:46.109Z,4.00
2018-11-13T12:40:46.106Z,4.60
2018-11-13T12:41:55.615Z,4.20
2018-11-13T12:42:54.701Z,4.40
2018-11-13T12:43:54.660Z,4.50
2018-11-13T12:44:55.516Z,6.40
2018-11-13T12:45:46.064Z,6.00
2018-11-13T12:46:55.897Z,5.70
2018-11-13T12:47:54.610Z,6.20
2018-11-13T12:48:46.060Z,5.00
2018-11-13T12:49:54.603Z,4.80
2018-11-13T12:51:57.611Z,3.80
2018-11-13T12:52:57.476Z,4.90
2018-11-13T12:54:06.945Z,3.90
2018-11-13T12:54:57.457Z,4.30
2018-11-13T12:56:09.259Z,4.10
2018-11-13T12:56:57.423Z,4.60
2018-11-13T12:58:06.977Z,4.50
2018-11-13T12:58:57.417Z,3.90
2018-11-13T12:59:57.369Z,3.20
2018-11-13T13:01:06.841Z,3.20
2018-11-13T13:01:57.423Z,3.80
2018-11-13T13:02:57.392Z,4.10
2018-11-13T13:03:57.328Z,4.10
2018-11-13T13:05:07.708Z,3.90
2018-11-13T13:05:57.343Z,3.90
2018-11-13T13:06:57.313Z,3.70
2018-11-13T13:07:57.307Z,5.60
2018-11-13T13:08:57.321Z,5.20
2018-11-13T13:10:07.407Z,3.60
2018-11-13T13:10:57.312Z,3.50
2018-11-13T13:12:08.135Z,3.20
2018-11-13T13:13:09.840Z,3.70
2018-11-13T13:14:08.322Z,4.10
2018-11-13T13:14:57.304Z,4.00
2018-11-13T13:15:57.211Z,3.50
2018-11-13T13:17:05.840Z,3.10
2018-11-13T13:19:11.031Z,3.60
2018-11-13T13:20:19.606Z,3.70
2018-11-13T13:21:11.023Z,3.60
2018-11-13T13:22:20.543Z,3.40
2018-11-13T13:23:23.074Z,3.70
2018-11-13T13:24:11.010Z,4.20
2018-11-13T13:25:10.951Z,3.40
2018-11-13T13:26:10.975Z,3.50
2018-11-13T13:27:20.375Z,3.30
2018-11-13T13:28:20.394Z,3.70
2018-11-13T13:29:23.140Z,3.80
2018-11-13T13:30:19.559Z,3.70
2018-11-13T13:31:10.915Z,4.50
2018-11-13T13:32:10.865Z,5.20
2018-11-13T13:33:10.899Z,5.20
2018-11-13T13:34:10.843Z,10.60
2018-11-13T13:35:10.799Z,8.00
2018-11-13T13:36:10.767Z,5.10
2018-11-13T13:37:10.780Z,5.70
2018-11-13T13:38:19.478Z,9.20
2018-11-13T13:39:10.773Z,4.60
2018-11-13T13:40:10.744Z,4.50
2018-11-13T13:41:10.783Z,5.70
2018-11-13T13:42:10.738Z,6.90
2018-11-13T13:43:10.928Z,6.10
2018-11-13T13:44:10.702Z,5.70
2018-11-13T13:45:10.690Z,4.00
2018-11-13T13:46:10.678Z,4.30
2018-11-13T13:47:10.726Z,3.70
2018-11-13T13:48:10.689Z,4.20
2018-11-13T13:49:10.670Z,3.40
2018-11-13T13:50:10.652Z,4.00
2018-11-13T13:51:10.653Z,4.00
2018-11-13T13:52:10.630Z,3.50